Grants Pass, Oregon
Current Conditions -  °F | °C
As of 6:27 PM on Friday 28 Nov 2014 (Local Time) from KSXT Reporting Station
Moderate Fog Moderate Fog  
Wind Chill: 36°   Ceiling: 100
Heat Index: 43°   Visibility: 0.25mi
Dew Point: 43°   Wind: 13mph
Humidity: 100%   Direction: 190°S
Pressure: 29.67"   Gusts: 21mph
Location:  42.44°N, 123.32°W
Report Text: KSXT 290227Z AUTO 19011G18KT 1/4SM FG VV001 06/06 A2967 RMK AO2 P0001 T00610061
Loading
Personal Weather Stations






























Interactive Weather Map New forecast layout! Learn more

10-Day Weather Forecast

Advertisements
Track Severe Weather on mobile